MPDA/DAV METAR and TAF weather

Enter ICAO airport designator
Station Type Date Time Source
MPDA METAR 2020/11/25 22:00 UTC NOAA

MPDA 252200Z 21007KT 9999 SCT018 SCT120 28/25 Q1009


Station Type Date Time Source
MPDA Decoded METAR 2020/11/25 22:00 UTC NOAA

David, Panama (MPDA) 08-24N 082-25W 26M
Nov 25, 2020 - 05:00 PM EST / 2020.11.25 2200 UTC
Wind: from the SSW (210 degrees) at 8 MPH (7 KT):0
Visibility: greater than 7 mile(s):0
Sky conditions: partly cloudy
Temperature: 82 F (28 C)
Dew Point: 77 F (25 C)
Relative Humidity: 83%
Pressure (altimeter): 29.80 in. Hg (1009 hPa)
ob: MPDA 252200Z 21007KT 9999 SCT018 SCT120 28/25 Q1009
cycle: 22

Station Type Date Time Source
MPDA TAF 2020/11/25 18:09 UTC NOAA

TAF TAF MPDA 251700Z 2518/2606 22006KT 9999 SCT018 SCT100 PROB40 2520/2524 6000 TSRA SCT015CB BKN080

Example: see airport list